Flight Sim Network - CZPC Airport Info

    CZPC (Pincher Creek Airport)  Login to use Map Selector
   

  RUNWAY INFORMATION    |    Airport Elevation : 3903ft    |    LAT : 49.5205993652  /  LON : -113.997001648
Runway Number 07 / 25 Runway Width 100' Runway Length 6600'
Lighted Runway Yes Runway StatusOpen Runway Surface Asphalt
  CLOSE ALTERNATE AIRPORTS
ICAODistanceAirport NameLongest RWRW SurfaceMAP
CYYM8NMCowley Airport4330FTDirt
CEY325NMFt Macleod3000FTAsphalt
CEJ432NMClaresholm Industrial Airport3100FTAsphalt
CEA637NMCardston Airport3500FTAsphalt
CYSW39NMSparwood Elk Valley Airport4000FTAsphalt
MT1740NMWurtz Airport3000FTGravel
49S46NMBabb Airport3860FTDirt
CYQL47NMLethbridge County Airport6500FTAsphalt
CBE247NMElko Airport3000FTDirt
CFC850NMMcDonald's Farm3200FTDirt
  AIRPORT WEATHER
84°F | 29°C
Temperature
23%
Humidity
29" | 1011mb
Pressure
9sm
Visibility
VFR
Flight Rules
CLR
Initial Clouds
FAIR
Conditions
Wind Info
7/23/24 17:00Z
Updated

CZPC 231700Z AUTO 25015G25KT 9SM CLR 29/06 A2997 RMK SLP117 DENSITY ALT 6400FT
  AIRPORT FREQUENCIES
NameFrequency
CLEARANCE126.700
MULTICOM123.200

Powered by Virtual Airlines Manager